createdAt,value
2019-05-07T00:01:06.864Z,10.80
2019-05-07T00:03:35.714Z,10.95
2019-05-07T00:06:04.354Z,10.35
2019-05-07T00:08:32.851Z,10.05
2019-05-07T00:11:02.515Z,10.45
2019-05-07T00:13:33.317Z,9.68
2019-05-07T00:16:02.488Z,11.83
2019-05-07T00:18:32.293Z,11.22
2019-05-07T00:21:03.372Z,10.30
2019-05-07T00:23:32.497Z,9.90
2019-05-07T00:26:02.518Z,10.05
2019-05-07T00:28:32.446Z,9.63
2019-05-07T00:31:02.935Z,9.68
2019-05-07T00:33:32.448Z,9.68
2019-05-07T00:36:02.782Z,9.63
2019-05-07T00:38:32.891Z,10.10
2019-05-07T00:41:03.249Z,9.70
2019-05-07T00:43:33.099Z,9.45
2019-05-07T00:46:03.293Z,9.48
2019-05-07T00:48:32.789Z,9.28
2019-05-07T00:51:19.369Z,8.93
2019-05-07T00:53:47.925Z,8.63
2019-05-07T00:56:16.469Z,8.90
2019-05-07T00:58:45.365Z,8.28
2019-05-07T01:01:13.887Z,9.33
2019-05-07T01:03:42.587Z,8.90
2019-05-07T01:06:12.893Z,8.25
2019-05-07T01:08:43.031Z,8.45
2019-05-07T01:11:13.168Z,9.38
2019-05-07T01:13:43.259Z,9.10
2019-05-07T01:16:12.982Z,8.70
2019-05-07T01:18:42.187Z,9.18
2019-05-07T01:21:13.093Z,9.20
2019-05-07T01:23:42.816Z,9.63
2019-05-07T01:26:12.437Z,10.13
2019-05-07T01:28:59.223Z,10.18
2019-05-07T01:31:34.539Z,9.78
2019-05-07T01:34:22.930Z,10.35
2019-05-07T01:36:52.348Z,10.10
2019-05-07T01:39:23.020Z,9.90
2019-05-07T01:41:52.419Z,10.28
2019-05-07T01:44:22.135Z,9.65
2019-05-07T01:46:52.886Z,9.58
2019-05-07T01:49:23.853Z,10.55
2019-05-07T01:51:52.992Z,10.13
2019-05-07T01:54:23.690Z,9.05
2019-05-07T01:56:52.252Z,11.30
2019-05-07T01:59:22.492Z,11.38
2019-05-07T02:01:52.998Z,11.05
2019-05-07T02:04:35.072Z,10.43
2019-05-07T02:07:13.751Z,10.58
2019-05-07T02:09:46.557Z,10.43
2019-05-07T02:12:19.490Z,11.93
2019-05-07T02:14:47.956Z,11.48
2019-05-07T02:17:16.425Z,12.03
2019-05-07T02:19:44.956Z,12.98
2019-05-07T02:22:13.541Z,12.23
2019-05-07T02:24:43.423Z,12.63
2019-05-07T02:27:12.699Z,11.73
2019-05-07T02:29:43.029Z,10.68
2019-05-07T02:32:13.327Z,11.08
2019-05-07T02:34:44.139Z,12.80
2019-05-07T02:37:13.641Z,12.10
2019-05-07T02:39:44.540Z,12.28
2019-05-07T02:42:13.236Z,12.70
2019-05-07T02:45:00.065Z,11.97
2019-05-07T02:47:33.100Z,11.68
2019-05-07T02:50:18.710Z,11.68
2019-05-07T02:52:55.006Z,12.93
2019-05-07T02:55:43.808Z,12.00
2019-05-07T02:58:13.769Z,11.50
2019-05-07T03:00:43.488Z,12.43
2019-05-07T03:03:13.879Z,13.95
2019-05-07T03:05:43.409Z,11.93
2019-05-07T03:08:13.415Z,12.28
2019-05-07T03:10:43.495Z,13.62
2019-05-07T03:13:15.872Z,12.50
2019-05-07T03:15:44.569Z,12.15
2019-05-07T03:18:13.946Z,13.58
2019-05-07T03:20:53.495Z,13.83
2019-05-07T03:23:23.187Z,13.95
2019-05-07T03:25:56.351Z,14.47
2019-05-07T03:28:26.153Z,15.10
2019-05-07T03:30:57.191Z,14.80
2019-05-07T03:33:27.703Z,14.63
2019-05-07T03:35:57.917Z,14.85
2019-05-07T03:38:26.704Z,14.40
2019-05-07T03:40:55.275Z,14.93
2019-05-07T03:43:27.372Z,15.63
2019-05-07T03:46:14.127Z,15.20
2019-05-07T03:48:44.299Z,15.13
2019-05-07T03:51:15.808Z,16.40
2019-05-07T03:53:44.643Z,16.02
2019-05-07T03:56:13.671Z,16.90
2019-05-07T03:58:43.336Z,17.30
2019-05-07T04:01:13.292Z,14.93
2019-05-07T04:03:44.651Z,17.87
2019-05-07T04:06:12.962Z,19.77
2019-05-07T04:08:43.334Z,17.87
2019-05-07T04:11:13.837Z,20.72
2019-05-07T04:13:44.157Z,20.97
2019-05-07T04:16:13.541Z,21.15
2019-05-07T04:18:43.917Z,22.70
2019-05-07T04:21:14.054Z,23.25
2019-05-07T04:23:43.808Z,21.55
2019-05-07T04:26:17.050Z,22.87
2019-05-07T04:28:53.658Z,22.93
2019-05-07T04:31:23.130Z,24.43
2019-05-07T04:33:53.355Z,23.73
2019-05-07T04:36:23.556Z,25.23
2019-05-07T04:38:53.212Z,23.22
2019-05-07T04:41:23.323Z,25.72
2019-05-07T04:43:56.320Z,26.25
2019-05-07T04:46:24.861Z,27.65
2019-05-07T04:48:53.849Z,25.75
2019-05-07T04:51:24.069Z,28.52
2019-05-07T04:53:54.209Z,28.65
2019-05-07T04:56:24.034Z,28.60
2019-05-07T04:58:53.217Z,27.82
2019-05-07T05:01:23.844Z,25.05
2019-05-07T05:03:53.960Z,24.35
2019-05-07T05:06:24.199Z,22.65
2019-05-07T05:08:56.049Z,24.12
2019-05-07T05:11:23.843Z,20.95
2019-05-07T05:13:53.313Z,21.23
2019-05-07T05:16:28.513Z,21.17
2019-05-07T05:18:57.182Z,22.50
2019-05-07T05:21:42.520Z,23.38
2019-05-07T05:24:15.627Z,21.70
2019-05-07T05:26:44.080Z,22.63
2019-05-07T05:29:12.670Z,21.25
2019-05-07T05:31:42.119Z,22.52
2019-05-07T05:34:13.080Z,23.32
2019-05-07T05:36:42.498Z,22.15
2019-05-07T05:39:13.176Z,22.02
2019-05-07T05:41:44.144Z,21.82
2019-05-07T05:44:14.663Z,21.48
2019-05-07T05:46:43.336Z,22.15
2019-05-07T05:49:12.239Z,21.82
2019-05-07T05:51:43.091Z,22.13
2019-05-07T05:54:19.091Z,21.27
2019-05-07T05:56:55.195Z,20.10
2019-05-07T05:59:47.848Z,20.80
2019-05-07T06:02:25.594Z,19.65
2019-05-07T06:04:55.838Z,20.12
2019-05-07T06:07:32.430Z,19.15
2019-05-07T06:10:08.641Z,21.65
2019-05-07T06:12:38.776Z,19.90
2019-05-07T06:15:09.568Z,18.40
2019-05-07T06:17:45.365Z,19.15
2019-05-07T06:20:16.830Z,19.70
2019-05-07T06:23:03.169Z,19.02
2019-05-07T06:25:33.443Z,19.60
2019-05-07T06:28:02.005Z,20.85
2019-05-07T06:30:30.613Z,19.77
2019-05-07T06:32:59.108Z,19.62
2019-05-07T06:35:27.595Z,20.08
2019-05-07T06:37:56.081Z,18.35
2019-05-07T06:40:32.272Z,18.98
2019-05-07T06:43:05.740Z,18.23
2019-05-07T06:45:42.365Z,19.37
2019-05-07T06:48:12.682Z,19.90
2019-05-07T06:50:43.270Z,20.20
2019-05-07T06:53:12.203Z,18.90
2019-05-07T06:55:42.690Z,18.45
2019-05-07T06:58:12.254Z,18.85
2019-05-07T07:00:42.647Z,18.32
2019-05-07T07:03:15.739Z,17.95
2019-05-07T07:05:45.895Z,16.48
2019-05-07T07:08:28.461Z,16.17
2019-05-07T07:11:07.680Z,16.15
2019-05-07T07:13:36.238Z,15.35
2019-05-07T07:16:04.835Z,15.85
2019-05-07T07:18:33.402Z,15.13
2019-05-07T07:21:02.701Z,15.60
2019-05-07T07:23:32.317Z,15.93
2019-05-07T07:26:03.123Z,16.00
2019-05-07T07:28:32.646Z,15.60
2019-05-07T07:31:19.562Z,14.98
2019-05-07T07:33:49.680Z,13.60
2019-05-07T07:36:19.107Z,13.60
2019-05-07T07:38:47.672Z,14.90
2019-05-07T07:41:32.508Z,14.30
2019-05-07T07:44:02.108Z,12.55
2019-05-07T07:46:32.819Z,12.05
2019-05-07T07:49:07.910Z,11.90
2019-05-07T07:51:40.659Z,11.43
2019-05-07T07:54:02.439Z,11.00
2019-05-07T07:56:47.835Z,10.35
2019-05-07T07:59:17.472Z,9.88
2019-05-07T08:01:47.628Z,9.50
2019-05-07T08:04:16.123Z,9.73
2019-05-07T08:06:45.933Z,8.15
2019-05-07T08:09:14.428Z,8.75
2019-05-07T08:11:42.960Z,8.00
2019-05-07T08:14:12.616Z,7.90
2019-05-07T08:16:42.897Z,7.90
2019-05-07T08:19:21.680Z,7.78
2019-05-07T08:21:42.522Z,7.03
2019-05-07T08:24:12.238Z,7.58
2019-05-07T08:26:42.816Z,7.10
2019-05-07T08:29:11.939Z,6.20
2019-05-07T08:31:48.226Z,6.33
2019-05-07T08:34:32.503Z,7.10
2019-05-07T08:37:01.844Z,7.42
2019-05-07T08:39:32.561Z,6.97
2019-05-07T08:42:02.060Z,6.35
2019-05-07T08:44:35.394Z,6.28
2019-05-07T08:47:05.593Z,7.05
2019-05-07T08:49:39.649Z,6.50
2019-05-07T08:52:05.239Z,7.10
2019-05-07T08:54:34.064Z,7.22
2019-05-07T08:57:02.828Z,7.15
2019-05-07T08:59:32.812Z,6.83
2019-05-07T09:02:02.944Z,6.95
2019-05-07T09:04:32.765Z,7.37
2019-05-07T09:07:02.627Z,6.58
2019-05-07T09:09:32.576Z,6.25
2019-05-07T09:12:03.306Z,6.28
2019-05-07T09:14:32.322Z,6.70
2019-05-07T09:17:02.612Z,6.62
2019-05-07T09:19:46.838Z,5.97
2019-05-07T09:22:03.484Z,6.60
2019-05-07T09:24:35.028Z,6.50
2019-05-07T09:27:17.104Z,5.75
2019-05-07T09:29:47.300Z,6.15
2019-05-07T09:32:32.853Z,6.47
2019-05-07T09:35:08.764Z,6.20
2019-05-07T09:37:37.410Z,6.15
2019-05-07T09:40:07.602Z,6.67
2019-05-07T09:42:36.082Z,6.60
2019-05-07T09:45:07.380Z,6.08
2019-05-07T09:47:35.926Z,6.17
2019-05-07T09:50:08.095Z,6.35
2019-05-07T09:52:36.250Z,6.17
2019-05-07T09:55:14.856Z,6.15
2019-05-07T09:57:37.374Z,5.35
2019-05-07T10:00:09.701Z,5.40
2019-05-07T10:02:38.324Z,6.62
2019-05-07T10:05:07.176Z,6.37
2019-05-07T10:07:35.877Z,6.12
2019-05-07T10:10:07.600Z,5.90
2019-05-07T10:12:42.073Z,6.15
2019-05-07T10:15:12.342Z,6.00
2019-05-07T10:17:45.449Z,6.65
2019-05-07T10:20:21.574Z,6.93
2019-05-07T10:22:46.778Z,6.78
2019-05-07T10:25:15.924Z,5.80
2019-05-07T10:27:44.532Z,5.72
2019-05-07T10:30:13.156Z,5.42
2019-05-07T10:32:42.397Z,5.00
2019-05-07T10:35:12.818Z,4.33
2019-05-07T10:37:42.267Z,3.83
2019-05-07T10:40:13.404Z,3.95
2019-05-07T10:42:43.028Z,5.15
2019-05-07T10:45:32.299Z,5.50
2019-05-07T10:48:02.700Z,4.35
2019-05-07T10:50:38.662Z,5.33
2019-05-07T10:53:03.272Z,5.25
2019-05-07T10:55:33.021Z,4.97
2019-05-07T10:58:02.978Z,5.47
2019-05-07T11:00:33.141Z,4.83
2019-05-07T11:03:02.465Z,5.37
2019-05-07T11:05:32.602Z,5.42
2019-05-07T11:08:02.250Z,5.97
2019-05-07T11:10:32.721Z,5.30
2019-05-07T11:13:02.405Z,5.95
2019-05-07T11:15:32.685Z,5.47
2019-05-07T11:18:21.817Z,5.58
2019-05-07T11:20:53.243Z,5.80
2019-05-07T11:23:22.235Z,4.92
2019-05-07T11:25:52.674Z,5.67
2019-05-07T11:28:22.735Z,4.62
2019-05-07T11:30:51.380Z,4.87
2019-05-07T11:33:21.874Z,5.00
2019-05-07T11:35:50.122Z,4.87
2019-05-07T11:38:24.085Z,5.20
2019-05-07T11:40:48.868Z,5.00
2019-05-07T11:43:19.125Z,5.08
2019-05-07T11:45:49.246Z,5.75
2019-05-07T11:48:18.973Z,5.78
2019-05-07T11:51:05.598Z,5.58
2019-05-07T11:53:35.710Z,5.72
2019-05-07T11:56:04.312Z,4.45
2019-05-07T11:58:32.795Z,5.37
2019-05-07T12:01:03.991Z,5.03
2019-05-07T12:03:32.751Z,5.40
2019-05-07T12:06:02.046Z,4.92
2019-05-07T12:08:39.408Z,4.97
2019-05-07T12:11:02.375Z,4.40
2019-05-07T12:13:32.315Z,4.80
2019-05-07T12:16:02.994Z,4.25
2019-05-07T12:18:32.058Z,4.22
2019-05-07T12:21:03.750Z,4.45
2019-05-07T12:23:33.252Z,5.00
2019-05-07T12:26:02.260Z,5.25
2019-05-07T12:28:32.763Z,5.30
2019-05-07T12:31:18.529Z,4.80
2019-05-07T12:33:48.735Z,5.17
2019-05-07T12:36:17.234Z,5.55
2019-05-07T12:38:45.779Z,5.20
2019-05-07T12:41:29.726Z,5.67
2019-05-07T12:44:02.343Z,5.00
2019-05-07T12:46:33.379Z,5.17
2019-05-07T12:49:03.108Z,5.37
2019-05-07T12:51:37.557Z,5.55
2019-05-07T12:54:08.970Z,4.85
2019-05-07T12:56:37.415Z,5.50
2019-05-07T12:59:06.044Z,5.12
2019-05-07T13:01:52.723Z,4.87
2019-05-07T13:04:25.590Z,4.87
2019-05-07T13:06:56.113Z,5.33
2019-05-07T13:09:25.007Z,5.08
2019-05-07T13:11:53.632Z,4.90
2019-05-07T13:14:22.190Z,5.37
2019-05-07T13:16:52.281Z,5.58
2019-05-07T13:19:22.634Z,5.17
2019-05-07T13:21:51.433Z,5.40
2019-05-07T13:24:19.891Z,5.72
2019-05-07T13:26:51.821Z,5.90
2019-05-07T13:29:22.205Z,6.60
2019-05-07T13:31:54.257Z,6.22
2019-05-07T13:34:22.945Z,5.60
2019-05-07T13:36:54.766Z,6.35
2019-05-07T13:39:34.010Z,6.40
2019-05-07T13:42:09.115Z,7.10
2019-05-07T13:44:42.371Z,6.90
2019-05-07T13:47:27.920Z,7.03
2019-05-07T13:49:57.075Z,7.05
2019-05-07T13:52:26.254Z,6.78
2019-05-07T13:54:55.547Z,6.70
2019-05-07T13:57:24.162Z,7.47
2019-05-07T13:59:53.338Z,5.33
2019-05-07T14:02:23.614Z,6.70
2019-05-07T14:04:52.738Z,6.80
2019-05-07T14:07:22.292Z,7.20
2019-05-07T14:09:52.730Z,6.78
2019-05-07T14:12:22.885Z,6.53
2019-05-07T14:14:53.041Z,6.25
2019-05-07T14:17:22.412Z,6.60
2019-05-07T14:19:53.009Z,6.17
2019-05-07T14:22:22.551Z,7.03
2019-05-07T14:24:53.118Z,6.70
2019-05-07T14:27:22.002Z,6.95
2019-05-07T14:29:51.986Z,7.30
2019-05-07T14:32:27.068Z,6.10
2019-05-07T14:35:03.839Z,6.03
2019-05-07T14:37:37.093Z,6.78
2019-05-07T14:40:09.218Z,8.03
2019-05-07T14:42:45.171Z,7.17
2019-05-07T14:45:14.391Z,7.25
2019-05-07T14:47:44.785Z,7.90
2019-05-07T14:50:14.665Z,7.92
2019-05-07T14:52:43.421Z,7.40
2019-05-07T14:55:12.853Z,7.67
2019-05-07T14:57:42.059Z,7.75
2019-05-07T15:00:12.246Z,7.87
2019-05-07T15:02:42.223Z,9.33
2019-05-07T15:05:12.063Z,8.55
2019-05-07T15:07:41.932Z,8.10
2019-05-07T15:10:11.297Z,8.75
2019-05-07T15:12:39.993Z,7.95
2019-05-07T15:15:09.238Z,7.92
2019-05-07T15:17:42.550Z,8.30
2019-05-07T15:20:11.565Z,8.55
2019-05-07T15:22:49.127Z,7.62
2019-05-07T15:25:14.476Z,8.50
2019-05-07T15:27:44.751Z,7.80
2019-05-07T15:30:14.001Z,9.15
2019-05-07T15:32:42.868Z,9.03
2019-05-07T15:35:12.728Z,8.60
2019-05-07T15:37:42.715Z,7.78
2019-05-07T15:40:11.726Z,8.13
2019-05-07T15:42:42.147Z,9.65
2019-05-07T15:45:12.495Z,7.72
2019-05-07T15:47:43.363Z,8.85
2019-05-07T15:50:12.479Z,8.65
2019-05-07T15:52:57.615Z,8.80
2019-05-07T15:55:16.378Z,7.97
2019-05-07T15:57:44.938Z,8.53
2019-05-07T16:00:25.871Z,8.23
2019-05-07T16:03:08.111Z,8.60
2019-05-07T16:05:36.710Z,8.28
2019-05-07T16:08:07.056Z,8.45
2019-05-07T16:10:35.601Z,9.93
2019-05-07T16:13:04.805Z,10.30
2019-05-07T16:15:33.796Z,8.90
2019-05-07T16:18:09.930Z,8.08
2019-05-07T16:20:38.453Z,8.60
2019-05-07T16:23:14.718Z,9.23
2019-05-07T16:25:37.135Z,9.33
2019-05-07T16:28:05.966Z,9.80
2019-05-07T16:30:36.860Z,8.55
2019-05-07T16:33:04.709Z,9.28
2019-05-07T16:35:33.262Z,9.10
2019-05-07T16:38:01.792Z,8.18
2019-05-07T16:40:32.217Z,8.30
2019-05-07T16:43:02.600Z,8.20
2019-05-07T16:45:30.727Z,9.25
2019-05-07T16:48:01.090Z,8.55
2019-05-07T16:50:29.396Z,8.95
2019-05-07T16:52:58.234Z,10.48
2019-05-07T16:55:28.348Z,9.83
2019-05-07T16:58:01.921Z,10.78
2019-05-07T17:00:38.045Z,11.28
2019-05-07T17:03:08.220Z,10.82
2019-05-07T17:05:38.291Z,10.10
2019-05-07T17:08:08.381Z,10.28
2019-05-07T17:10:36.885Z,10.80
2019-05-07T17:13:05.424Z,10.75
2019-05-07T17:15:35.542Z,11.15
2019-05-07T17:18:04.095Z,10.82
2019-05-07T17:20:33.071Z,11.57
2019-05-07T17:23:02.978Z,11.90
2019-05-07T17:25:37.539Z,12.13
2019-05-07T17:28:12.481Z,11.28
2019-05-07T17:30:42.106Z,11.73
2019-05-07T17:33:12.832Z,10.32
2019-05-07T17:35:42.321Z,11.73
2019-05-07T17:38:12.852Z,11.20
2019-05-07T17:40:42.360Z,11.65
2019-05-07T17:43:12.306Z,11.33
2019-05-07T17:45:42.919Z,11.33
2019-05-07T17:48:12.276Z,10.70
2019-05-07T17:50:43.065Z,12.25
2019-05-07T17:53:11.976Z,11.55
2019-05-07T17:55:42.281Z,12.53
2019-05-07T17:58:12.874Z,12.05
2019-05-07T18:00:43.280Z,11.28
2019-05-07T18:03:22.458Z,11.48
2019-05-07T18:05:51.915Z,11.03
2019-05-07T18:08:21.755Z,11.45
2019-05-07T18:10:50.310Z,11.48
2019-05-07T18:13:18.788Z,11.00
2019-05-07T18:15:47.408Z,10.98
2019-05-07T18:18:15.943Z,9.98
2019-05-07T18:20:44.495Z,10.43
2019-05-07T18:23:16.928Z,10.85
2019-05-07T18:25:43.538Z,10.93
2019-05-07T18:28:12.858Z,10.93
2019-05-07T18:30:41.367Z,10.28
2019-05-07T18:33:14.207Z,11.03
2019-05-07T18:35:45.378Z,10.48
2019-05-07T18:38:14.137Z,11.10
2019-05-07T18:40:42.596Z,10.55
2019-05-07T18:43:12.282Z,11.30
2019-05-07T18:45:41.101Z,10.43
2019-05-07T18:48:11.721Z,10.82
2019-05-07T18:50:41.827Z,10.32
2019-05-07T18:53:11.999Z,10.50
2019-05-07T18:55:42.200Z,10.53
2019-05-07T18:58:10.509Z,9.83
2019-05-07T19:00:43.777Z,10.68
2019-05-07T19:03:12.360Z,10.65
2019-05-07T19:05:42.424Z,10.70
2019-05-07T19:08:12.604Z,10.55
2019-05-07T19:10:42.910Z,10.13
2019-05-07T19:13:11.764Z,10.00
2019-05-07T19:15:42.022Z,12.03
2019-05-07T19:18:12.026Z,11.80
2019-05-07T19:20:42.203Z,10.82
2019-05-07T19:23:10.831Z,11.25
2019-05-07T19:25:39.285Z,11.00
2019-05-07T19:28:07.769Z,10.63
2019-05-07T19:30:36.234Z,9.85
2019-05-07T19:33:04.760Z,10.00
2019-05-07T19:35:33.324Z,11.50
2019-05-07T19:38:02.842Z,11.10
2019-05-07T19:40:32.505Z,11.55
2019-05-07T19:43:03.002Z,11.20
2019-05-07T19:45:31.621Z,11.73
2019-05-07T19:48:00.170Z,10.93
2019-05-07T19:50:28.652Z,10.98
2019-05-07T19:52:57.101Z,10.53
2019-05-07T19:55:25.641Z,12.33
2019-05-07T19:57:55.766Z,13.90
2019-05-07T20:00:26.151Z,20.72
2019-05-07T20:02:58.950Z,12.75
2019-05-07T20:05:27.497Z,11.55
2019-05-07T20:07:59.554Z,13.58
2019-05-07T20:10:27.878Z,11.93
2019-05-07T20:12:56.367Z,12.23
2019-05-07T20:15:25.165Z,10.82
2019-05-07T20:17:53.648Z,11.80
2019-05-07T20:20:22.452Z,11.68
2019-05-07T20:22:51.849Z,11.38
2019-05-07T20:25:22.547Z,11.93
2019-05-07T20:27:52.695Z,10.95
2019-05-07T20:30:22.865Z,10.90
2019-05-07T20:32:52.291Z,10.53
2019-05-07T20:35:21.064Z,10.60
2019-05-07T20:37:49.612Z,11.28
2019-05-07T20:40:18.102Z,10.58
2019-05-07T20:42:46.583Z,10.98
2019-05-07T20:45:15.469Z,10.93
2019-05-07T20:47:43.988Z,10.40
2019-05-07T20:50:12.859Z,10.13
2019-05-07T20:52:42.183Z,11.45
2019-05-07T20:55:27.986Z,11.60
2019-05-07T20:57:47.237Z,11.53
2019-05-07T21:00:27.612Z,11.63
2019-05-07T21:03:14.296Z,11.78
2019-05-07T21:05:42.922Z,12.25
2019-05-07T21:08:11.996Z,12.10
2019-05-07T21:10:42.626Z,11.80
2019-05-07T21:13:26.988Z,11.85
2019-05-07T21:15:42.026Z,11.68
2019-05-07T21:18:14.212Z,13.45
2019-05-07T21:20:42.796Z,12.55
2019-05-07T21:23:12.207Z,12.33
2019-05-07T21:25:43.494Z,12.63
2019-05-07T21:28:12.196Z,12.18
2019-05-07T21:30:42.705Z,11.88
2019-05-07T21:33:11.974Z,12.30
2019-05-07T21:35:42.745Z,12.93
2019-05-07T21:38:12.779Z,13.40
2019-05-07T21:40:42.867Z,12.82
2019-05-07T21:43:12.045Z,13.25
2019-05-07T21:45:42.347Z,13.05
2019-05-07T21:48:13.546Z,13.00
2019-05-07T21:50:41.649Z,13.38
2019-05-07T21:53:12.099Z,13.45
2019-05-07T21:56:01.682Z,14.30
2019-05-07T21:58:26.329Z,13.40
2019-05-07T22:01:02.030Z,14.25
2019-05-07T22:03:34.695Z,14.15
2019-05-07T22:06:02.607Z,13.45
2019-05-07T22:08:32.564Z,14.00
2019-05-07T22:11:04.703Z,15.03
2019-05-07T22:13:33.534Z,14.68
2019-05-07T22:16:02.726Z,13.25
2019-05-07T22:18:32.013Z,13.13
2019-05-07T22:21:02.926Z,13.30
2019-05-07T22:23:32.463Z,13.65
2019-05-07T22:26:18.369Z,13.55
2019-05-07T22:28:32.997Z,12.88
2019-05-07T22:31:03.186Z,13.28
2019-05-07T22:33:49.507Z,13.40
2019-05-07T22:36:18.128Z,13.35
2019-05-07T22:38:46.648Z,14.18
2019-05-07T22:41:15.131Z,13.60
2019-05-07T22:43:43.696Z,13.43
2019-05-07T22:46:14.124Z,13.88
2019-05-07T22:48:42.679Z,14.43
2019-05-07T22:51:12.303Z,13.68
2019-05-07T22:53:41.005Z,13.70
2019-05-07T22:56:09.565Z,12.73
2019-05-07T22:58:41.848Z,12.50
2019-05-07T23:01:13.078Z,13.05
2019-05-07T23:03:43.020Z,12.78
2019-05-07T23:06:12.387Z,13.00
2019-05-07T23:08:42.473Z,13.20
2019-05-07T23:11:12.219Z,12.58
2019-05-07T23:13:42.765Z,12.82
2019-05-07T23:16:12.595Z,12.75
2019-05-07T23:18:42.867Z,11.75
2019-05-07T23:21:11.541Z,11.40
2019-05-07T23:23:42.247Z,11.35
2019-05-07T23:26:14.261Z,11.53
2019-05-07T23:28:41.845Z,11.33
2019-05-07T23:31:12.147Z,11.40
2019-05-07T23:33:40.778Z,11.93
2019-05-07T23:36:12.918Z,11.83
2019-05-07T23:38:42.636Z,12.55
2019-05-07T23:41:13.303Z,12.78
2019-05-07T23:43:42.404Z,12.98
2019-05-07T23:46:12.848Z,12.25
2019-05-07T23:48:42.705Z,13.68
2019-05-07T23:51:12.639Z,13.22
2019-05-07T23:53:44.204Z,12.55
2019-05-07T23:56:13.131Z,11.78
2019-05-07T23:58:42.014Z,12.78
